createdAt,value
2018-09-25T00:02:48.178Z,87.81
2018-09-25T00:08:57.919Z,88.01
2018-09-25T00:15:08.219Z,88.77
2018-09-25T00:21:18.034Z,88.11
2018-09-25T00:27:27.992Z,88.03
2018-09-25T00:33:37.636Z,87.96
2018-09-25T00:39:47.270Z,87.66
2018-09-25T00:45:56.989Z,88.54
2018-09-25T00:52:06.702Z,88.58
2018-09-25T00:58:16.881Z,88.26
2018-09-25T01:04:26.557Z,87.99
2018-09-25T01:10:36.751Z,87.83
2018-09-25T01:16:46.330Z,88.02
2018-09-25T01:22:56.232Z,88.38
2018-09-25T01:29:06.137Z,88.42
2018-09-25T01:35:15.943Z,89.00
2018-09-25T01:41:26.176Z,89.54
2018-09-25T01:47:43.015Z,89.28
2018-09-25T01:53:52.870Z,89.35
2018-09-25T02:00:02.582Z,89.83
2018-09-25T02:06:12.545Z,89.48
2018-09-25T02:12:22.542Z,89.61
2018-09-25T02:18:32.444Z,89.45
2018-09-25T02:24:42.207Z,89.97
2018-09-25T02:30:52.115Z,90.16
2018-09-25T02:37:01.992Z,90.26
2018-09-25T02:43:12.359Z,89.88
2018-09-25T02:49:22.142Z,89.99
2018-09-25T02:55:32.321Z,90.46
2018-09-25T03:01:42.080Z,89.85
2018-09-25T03:07:52.110Z,90.20
2018-09-25T03:14:01.962Z,90.30
2018-09-25T03:20:11.717Z,89.62
2018-09-25T03:26:21.558Z,90.24
2018-09-25T03:32:31.350Z,88.14
2018-09-25T03:38:41.329Z,87.65
2018-09-25T03:44:51.718Z,89.62
2018-09-25T03:51:01.498Z,90.01
2018-09-25T03:57:18.148Z,90.24
2018-09-25T04:03:27.816Z,89.68
2018-09-25T04:09:37.654Z,88.62
2018-09-25T04:15:47.479Z,89.26
2018-09-25T04:21:57.277Z,89.58
2018-09-25T04:28:07.014Z,89.65
2018-09-25T04:34:16.902Z,90.46
2018-09-25T04:40:26.986Z,89.51
2018-09-25T04:46:36.828Z,89.44
2018-09-25T04:52:46.557Z,90.19
2018-09-25T04:58:56.669Z,90.33
2018-09-25T05:05:06.477Z,91.13
2018-09-25T05:11:16.317Z,91.11
2018-09-25T05:17:26.046Z,90.90
2018-09-25T05:23:35.909Z,90.50
2018-09-25T05:29:45.707Z,90.18
2018-09-25T05:35:55.596Z,89.18
2018-09-25T05:42:05.135Z,90.00
2018-09-25T05:48:14.918Z,90.22
2018-09-25T05:54:25.115Z,90.27
2018-09-25T06:00:34.961Z,89.82
2018-09-25T06:06:45.016Z,90.15
2018-09-25T06:12:54.801Z,90.65
2018-09-25T06:19:04.684Z,89.50
2018-09-25T06:25:14.604Z,84.63
2018-09-25T06:31:24.258Z,83.95
2018-09-25T06:37:34.001Z,84.78
2018-09-25T06:43:44.134Z,84.06
2018-09-25T06:49:54.040Z,84.76
2018-09-25T06:56:03.890Z,83.84
2018-09-25T07:02:13.611Z,83.30
2018-09-25T07:08:23.772Z,83.45
2018-09-25T07:14:33.532Z,82.71
2018-09-25T07:20:43.834Z,76.38
2018-09-25T07:26:53.818Z,72.68
2018-09-25T07:33:03.689Z,74.83
2018-09-25T07:39:15.237Z,73.08
2018-09-25T07:45:24.990Z,72.21
2018-09-25T07:51:34.570Z,72.65
2018-09-25T07:57:44.478Z,72.75
2018-09-25T08:03:54.600Z,71.29
2018-09-25T08:10:04.294Z,70.22
2018-09-25T08:16:14.285Z,69.16
2018-09-25T08:22:24.034Z,69.60
2018-09-25T08:28:33.849Z,66.90
2018-09-25T08:34:43.674Z,59.35
2018-09-25T08:40:53.514Z,52.88
2018-09-25T08:47:03.440Z,51.73
2018-09-25T08:53:13.159Z,45.68
2018-09-25T08:59:23.359Z,38.69
2018-09-25T09:05:33.076Z,36.91
2018-09-25T09:11:42.823Z,37.31
2018-09-25T09:17:52.572Z,38.51
2018-09-25T09:24:02.537Z,38.38
2018-09-25T09:30:12.363Z,42.13
2018-09-25T09:36:22.274Z,44.26
2018-09-25T09:42:38.860Z,43.94
2018-09-25T09:48:48.643Z,41.56
2018-09-25T09:54:58.558Z,44.27
2018-09-25T10:01:08.333Z,40.89
2018-09-25T10:07:18.340Z,38.81
2018-09-25T10:13:27.831Z,40.41
2018-09-25T10:19:37.610Z,45.23
2018-09-25T10:25:47.384Z,49.83
2018-09-25T10:31:57.514Z,50.55
2018-09-25T10:38:07.391Z,51.12
2018-09-25T10:44:17.781Z,47.27
2018-09-25T10:50:27.571Z,41.15
2018-09-25T10:56:37.342Z,32.23
2018-09-25T11:02:47.227Z,30.56
2018-09-25T11:08:57.324Z,27.84
2018-09-25T11:15:06.997Z,29.76
2018-09-25T11:21:16.810Z,35.89
2018-09-25T11:27:26.594Z,38.88
2018-09-25T11:33:36.290Z,41.95
2018-09-25T11:39:45.995Z,35.54
2018-09-25T11:45:55.883Z,34.61
2018-09-25T11:52:05.532Z,36.05
2018-09-25T11:58:15.242Z,34.92
2018-09-25T12:04:25.466Z,30.67
2018-09-25T12:10:35.102Z,28.93
2018-09-25T12:16:44.945Z,29.07
2018-09-25T12:22:54.976Z,27.36
2018-09-25T12:29:04.829Z,25.55
2018-09-25T12:35:14.760Z,24.93
2018-09-25T12:41:24.270Z,29.63
2018-09-25T12:47:34.298Z,33.25
2018-09-25T12:53:44.176Z,35.16
2018-09-25T12:59:53.914Z,38.05
2018-09-25T13:06:03.803Z,37.31
2018-09-25T13:12:14.044Z,35.21
2018-09-25T13:18:24.481Z,37.02
2018-09-25T13:24:34.120Z,39.63
2018-09-25T13:30:44.217Z,40.85
2018-09-25T13:36:54.210Z,39.14
2018-09-25T13:43:04.102Z,36.55
2018-09-25T13:49:14.124Z,38.65
2018-09-25T13:55:23.987Z,41.05
2018-09-25T14:01:33.865Z,41.39
2018-09-25T14:07:43.568Z,43.24
2018-09-25T14:13:53.316Z,42.93
2018-09-25T14:20:03.136Z,41.24
2018-09-25T14:26:12.930Z,34.58
2018-09-25T14:32:22.703Z,28.09
2018-09-25T14:38:32.794Z,26.84
2018-09-25T14:44:42.638Z,29.38
2018-09-25T14:50:52.160Z,27.45
2018-09-25T14:57:02.255Z,23.77
2018-09-25T15:03:12.063Z,23.67
2018-09-25T15:09:22.187Z,23.40
2018-09-25T15:15:31.958Z,25.13
2018-09-25T15:21:42.231Z,27.11
2018-09-25T15:27:52.211Z,27.54
2018-09-25T15:34:01.817Z,30.35
2018-09-25T15:40:12.024Z,30.33
2018-09-25T15:46:21.830Z,31.46
2018-09-25T15:52:31.547Z,30.58
2018-09-25T15:58:41.688Z,30.10
2018-09-25T16:04:51.247Z,30.73
2018-09-25T16:11:00.876Z,34.19
2018-09-25T16:17:10.805Z,35.40
2018-09-25T16:23:20.365Z,39.02
2018-09-25T16:29:30.058Z,38.42
2018-09-25T16:35:40.335Z,38.02
2018-09-25T16:41:50.180Z,43.00
2018-09-25T16:47:59.872Z,44.95
2018-09-25T16:54:09.510Z,48.79
2018-09-25T17:00:19.283Z,51.70
2018-09-25T17:06:29.015Z,54.20
2018-09-25T17:12:38.790Z,57.31
2018-09-25T17:18:49.215Z,59.02
2018-09-25T17:24:59.101Z,59.61
2018-09-25T17:31:08.932Z,61.57
2018-09-25T17:37:18.789Z,63.23
2018-09-25T17:43:28.851Z,63.47
2018-09-25T17:49:38.651Z,64.20
2018-09-25T17:55:48.548Z,64.88
2018-09-25T18:01:58.266Z,65.64
2018-09-25T18:08:08.096Z,66.48
2018-09-25T18:14:18.212Z,65.42
2018-09-25T18:20:28.116Z,66.57
2018-09-25T18:26:38.317Z,67.26
2018-09-25T18:32:48.794Z,67.45
2018-09-25T18:38:58.666Z,67.01
2018-09-25T18:45:08.694Z,68.45
2018-09-25T18:51:18.310Z,67.55
2018-09-25T18:57:28.073Z,68.31
2018-09-25T19:03:37.934Z,69.36
2018-09-25T19:09:47.671Z,69.03
2018-09-25T19:15:57.367Z,69.54
2018-09-25T19:22:07.146Z,70.46
2018-09-25T19:28:16.981Z,70.85
2018-09-25T19:34:26.638Z,71.71
2018-09-25T19:40:36.752Z,71.99
2018-09-25T19:46:46.906Z,72.86
2018-09-25T19:52:57.406Z,73.76
2018-09-25T19:59:07.315Z,74.43
2018-09-25T20:05:17.859Z,74.75
2018-09-25T20:11:27.444Z,75.11
2018-09-25T20:17:37.208Z,75.00
2018-09-25T20:23:47.139Z,75.74
2018-09-25T20:29:56.851Z,76.07
2018-09-25T20:36:06.719Z,76.10
2018-09-25T20:42:16.810Z,77.00
2018-09-25T20:48:26.651Z,77.38
2018-09-25T20:54:37.015Z,78.21
2018-09-25T21:00:46.779Z,77.99
2018-09-25T21:06:56.950Z,79.65
2018-09-25T21:13:06.710Z,80.37
2018-09-25T21:19:16.588Z,80.05
2018-09-25T21:25:26.352Z,79.67
2018-09-25T21:31:36.458Z,80.31
2018-09-25T21:37:46.336Z,82.09
2018-09-25T21:43:56.195Z,81.76
2018-09-25T21:50:05.946Z,82.12
2018-09-25T21:56:15.538Z,82.21
2018-09-25T22:02:25.301Z,82.46
2018-09-25T22:08:35.576Z,83.54
2018-09-25T22:14:45.299Z,83.83
2018-09-25T22:20:55.196Z,83.54
2018-09-25T22:27:04.941Z,83.95
2018-09-25T22:33:14.528Z,83.96
2018-09-25T22:39:24.188Z,84.30
2018-09-25T22:45:33.867Z,83.92
2018-09-25T22:51:43.584Z,82.75
2018-09-25T22:57:53.814Z,82.79
2018-09-25T23:04:03.957Z,82.75
2018-09-25T23:10:13.815Z,82.40
2018-09-25T23:16:24.315Z,82.09
2018-09-25T23:22:34.074Z,82.71
2018-09-25T23:28:43.825Z,82.50
2018-09-25T23:34:53.628Z,82.81
2018-09-25T23:41:11.691Z,82.77
2018-09-25T23:47:21.453Z,82.96
2018-09-25T23:53:29.268Z,82.49
2018-09-25T23:59:47.875Z,82.73
